Time;durP1;ratioP1;P1;durP2;ratioP2;P2;SDS_P1;SDS_P2;PMS_P1;PMS_P2;Temp;Humidity;BMP_temperature;BMP_pressure;BME280_temperature;BME280_humidity;BME280_pressure;Samples;Min_cycle;Max_cycle;Signal;HPM_P1;HPM_P2
2022/08/15 00:18:31;;;;;;;23.20;13.70;;;;;;;18.49;80.21;97885.15;434729;1261;111100;-38
2022/08/15 00:28:38;;;;;;;19.00;14.40;;;;;;;18.60;80.23;97883.47;435180;1261;108761;-39
2022/08/15 00:38:46;;;;;;;21.00;15.10;;;;;;;18.69;80.19;97884.31;435029;1261;96895;-39
2022/08/15 00:48:55;;;;;;;18.10;14.10;;;;;;;18.60;79.92;97871.85;435419;1260;109011;-40
2022/08/15 00:59:03;;;;;;;16.90;13.60;;;;;;;18.43;79.80;97862.88;435220;1261;97974;-41
2022/08/15 01:09:13;;;;;;;19.40;14.70;;;;;;;18.11;79.69;97855.38;435577;1251;111235;-40
2022/08/15 01:19:26;;;;;;;18.70;14.40;;;;;;;17.92;80.10;97842.98;434226;1266;108165;-40
2022/08/15 01:29:35;;;;;;;18.40;13.90;;;;;;;17.69;80.26;97843.83;434137;1264;97951;-40
2022/08/15 01:39:43;;;;;;;20.90;15.20;;;;;;;17.44;80.12;97846.45;434045;1265;108597;-39
2022/08/15 01:49:51;;;;;;;26.10;15.00;;;;;;;17.16;80.50;97863.52;434244;1264;98619;-40
2022/08/15 02:00:10;;;;;;;25.20;17.50;;;;;;;17.10;80.81;97860.14;434202;1264;111207;-40
2022/08/15 02:10:24;;;;;;;22.40;15.40;;;;;;;17.06;80.99;97851.77;433258;1264;108810;-40
2022/08/15 02:20:34;;;;;;;25.50;15.90;;;;;;;16.89;80.77;97845.21;433582;1264;97886;-42
2022/08/15 02:30:46;;;;;;;24.20;16.10;;;;;;;16.65;80.81;97832.57;434086;1264;109573;-39
2022/08/15 02:40:57;;;;;;;21.80;14.60;;;;;;;16.46;81.05;97825.54;433946;1266;98573;-39
2022/08/15 02:51:03;;;;;;;27.10;17.80;;;;;;;16.30;81.26;97813.70;434380;1264;111056;-39
2022/08/15 03:01:17;;;;;;;23.80;15.60;;;;;;;16.21;81.45;97814.39;433779;1265;108389;-41
2022/08/15 03:11:31;;;;;;;22.70;15.30;;;;;;;16.28;81.49;97807.58;434183;1264;96931;-40
2022/08/15 03:21:57;;;;;;;21.20;15.20;;;;;;;16.17;81.50;97808.79;434422;1264;108882;-40
2022/08/15 03:53:04;;;;;;;21.30;15.80;;;;;;;15.85;81.52;97819.60;434084;1264;108840;-40
2022/08/15 04:03:14;;;;;;;19.10;13.90;;;;;;;15.81;81.46;97832.83;434065;1264;97886;-40
2022/08/15 04:13:25;;;;;;;19.00;14.80;;;;;;;15.85;81.79;97824.52;433991;1264;108750;-42
2022/08/15 04:23:35;;;;;;;25.00;14.30;;;;;;;16.04;82.02;97813.36;434278;1264;97880;-42
2022/08/15 04:33:44;;;;;;;23.50;15.60;;;;;;;16.53;81.97;97803.64;434557;1263;111077;-42
2022/08/15 04:44:11;;;;;;;26.30;16.60;;;;;;;17.69;82.48;97832.63;434386;1264;108866;-39
2022/08/15 04:54:24;;;;;;;21.50;16.70;;;;;;;19.13;82.22;97837.55;433858;1265;97484;-39
2022/08/15 05:04:32;;;;;;;21.50;15.80;;;;;;;19.77;81.21;97836.35;433592;1264;111217;-42
2022/08/15 05:14:42;;;;;;;20.30;15.10;;;;;;;20.47;81.02;97827.84;434654;1264;108809;-41
2022/08/15 05:24:57;;;;;;;20.10;15.10;;;;;;;21.34;80.55;97821.00;434080;1263;97881;-41
2022/08/15 05:35:03;;;;;;;19.90;16.10;;;;;;;21.70;79.34;97813.58;433963;1264;96664;-40
2022/08/15 05:45:15;;;;;;;15.90;14.00;;;;;;;21.40;78.77;97814.66;433968;1264;110962;-41
2022/08/15 05:55:36;;;;;;;17.10;14.90;;;;;;;21.69;78.66;97805.02;434103;1264;108744;-40
2022/08/15 06:05:44;;;;;;;21.50;15.90;;;;;;;22.69;78.70;97806.29;434135;1264;97805;-39
2022/08/15 06:15:58;;;;;;;18.60;15.00;;;;;;;23.00;77.12;97808.05;434044;1264;111204;-40
2022/08/15 06:36:28;;;;;;;21.40;18.30;;;;;;;23.21;75.41;97819.42;434458;1264;98608;-40
2022/08/15 06:46:40;;;;;;;21.00;17.50;;;;;;;23.68;75.76;97819.27;434341;1264;111364;-40
2022/08/15 06:57:01;;;;;;;19.60;16.10;;;;;;;24.37;74.72;97815.27;433986;1264;108364;-40
2022/08/15 07:07:11;;;;;;;25.50;15.70;;;;;;;25.25;74.83;97815.76;434096;1264;97887;-40
2022/08/15 07:17:21;;;;;;;19.20;16.00;;;;;;;25.90;73.88;97816.77;434248;1264;110825;-40
2022/08/15 07:27:39;;;;;;;16.30;14.10;;;;;;;26.52;72.73;97817.40;434260;1264;108920;-40
2022/08/15 07:48:04;;;;;;;17.40;13.80;;;;;;;24.71;68.30;97831.52;434447;1261;97482;-40
2022/08/15 07:58:21;;;;;;;16.10;13.10;;;;;;;24.50;69.32;97831.73;433793;1264;110868;-41
2022/08/15 08:08:32;;;;;;;15.50;12.70;;;;;;;24.79;68.83;97838.23;433705;1264;109344;-40
2022/08/15 08:18:54;;;;;;;13.20;11.80;;;;;;;25.04;68.17;97834.98;433902;1263;97927;-39
2022/08/15 08:29:02;;;;;;;13.80;11.10;;;;;;;24.99;66.58;97828.95;434284;1264;111002;-39
2022/08/15 08:39:18;;;;;;;13.60;11.20;;;;;;;25.63;66.46;97827.46;434163;1263;108829;-39
2022/08/15 08:49:36;;;;;;;10.00;9.00;;;;;;;25.84;65.52;97823.20;433899;1264;97983;-39
2022/08/15 09:00:06;;;;;;;14.50;11.00;;;;;;;26.19;64.34;97818.16;434168;1263;97904;-38
2022/08/15 09:10:29;;;;;;;12.10;10.00;;;;;;;25.51;62.08;97819.77;434362;1264;110980;-39
2022/08/15 09:20:39;;;;;;;12.30;9.50;;;;;;;25.64;62.68;97808.52;434149;1263;108638;-40
2022/08/15 09:30:49;;;;;;;11.80;10.40;;;;;;;26.34;62.69;97808.84;434539;1263;108771;-42
2022/08/15 09:41:21;;;;;;;13.30;11.20;;;;;;;26.72;61.86;97801.77;434602;1264;97897;-41
2022/08/15 10:01:46;;;;;;;16.60;10.30;;;;;;;26.76;59.41;97791.79;433508;1265;1525656;-41
2022/08/15 10:12:18;;;;;;;12.20;9.10;;;;;;;26.83;58.81;97780.55;434227;1265;98571;-40
2022/08/15 10:22:44;;;;;;;12.10;8.50;;;;;;;27.07;58.45;97776.09;433747;1265;98595;-40
2022/08/15 10:43:39;;;;;;;10.80;9.70;;;;;;;27.67;58.01;97760.35;434055;1265;108257;-40
2022/08/15 10:54:01;;;;;;;11.90;8.00;;;;;;;27.61;57.05;97762.48;434340;1265;96758;-39
2022/08/15 11:14:33;;;;;;;12.80;8.10;;;;;;;28.11;56.13;97758.55;433924;1265;110818;-39
2022/08/15 11:24:39;;;;;;;10.50;7.70;;;;;;;28.30;56.14;97751.08;434031;1265;108811;-39
2022/08/15 11:34:47;;;;;;;10.50;7.50;;;;;;;28.38;55.38;97748.63;434084;1265;107592;-39
2022/08/15 11:55:15;;;;;;;8.10;7.40;;;;;;;28.63;53.38;97745.38;433888;1265;111783;-40
2022/08/15 12:05:27;;;;;;;7.60;6.50;;;;;;;28.73;53.13;97745.44;434055;1265;108940;-40
2022/08/15 12:15:51;;;;;;;9.20;7.20;;;;;;;28.35;52.94;97741.61;433829;1265;97462;-41
2022/08/15 12:36:28;;;;;;;8.20;7.30;;;;;;;28.85;52.87;97730.67;433980;1265;108888;-40
2022/08/15 12:46:54;;;;;;;;;;;;;;;28.91;52.60;97726.30;434173;1265;97881;-41
2022/08/15 12:57:01;;;;;;;10.00;7.90;;;;;;;28.93;51.79;97711.48;433987;1265;97977;-41
2022/08/15 13:07:23;;;;;;;9.10;7.60;;;;;;;28.71;50.68;97701.26;433775;1265;111067;-40
2022/08/15 13:17:38;;;;;;;8.90;7.90;;;;;;;28.71;51.44;97693.96;433796;1266;108811;-40
2022/08/15 13:28:04;;;;;;;;;;;;;;;28.77;51.45;97693.70;434131;1265;98164;-41
2022/08/15 13:38:12;;;;;;;8.60;7.80;;;;;;;28.90;51.79;97687.73;433848;1266;96652;-41
2022/08/15 14:08:49;;;;;;;11.10;7.70;;;;;;;28.79;51.25;97668.95;435066;1266;109492;-38
2022/08/15 14:19:18;;;;;;;12.00;8.30;;;;;;;28.72;50.34;97667.02;434584;1265;97911;-38
2022/08/15 14:29:46;;;;;;;8.80;7.80;;;;;;;28.96;50.80;97659.59;434080;1265;111149;-39
2022/08/15 14:50:04;;;;;;;9.20;6.30;;;;;;;28.83;50.35;97648.79;433756;1265;108699;-39
2022/08/15 15:10:37;;;;;;;7.40;6.60;;;;;;;28.54;49.99;97650.41;434326;1265;110785;-40
2022/08/15 15:20:44;;;;;;;12.40;7.20;;;;;;;28.44;50.24;97647.04;434183;1265;108883;-43
2022/08/15 15:40:57;;;;;;;10.60;7.20;;;;;;;28.31;50.11;97658.36;434215;1265;97881;-41
2022/08/15 16:01:09;;;;;;;11.30;7.50;;;;;;;28.21;50.47;97648.67;434303;1265;108030;-39
2022/08/15 16:22:05;;;;;;;9.60;8.80;;;;;;;27.75;51.02;97639.05;434057;1265;97528;-40
2022/08/15 16:32:12;;;;;;;11.40;9.10;;;;;;;27.69;51.45;97639.27;434352;1265;111207;-41
2022/08/15 16:52:59;;;;;;;12.40;10.40;;;;;;;27.35;51.99;97655.77;434290;1265;98627;-40
2022/08/15 17:03:19;;;;;;;11.80;10.50;;;;;;;27.16;52.12;97660.73;434081;1265;97881;-40
2022/08/15 17:13:41;;;;;;;15.00;11.10;;;;;;;27.00;52.33;97659.36;434168;1265;110924;-40
2022/08/15 17:24:19;;;;;;;11.70;10.50;;;;;;;26.83;52.86;97660.75;434040;1265;109203;-41
2022/08/15 17:34:51;;;;;;;13.80;12.10;;;;;;;26.55;53.10;97658.67;434171;1265;108808;-40
2022/08/15 17:45:06;;;;;;;14.30;11.60;;;;;;;26.17;53.81;97662.74;434283;1265;97512;-40
2022/08/15 17:55:35;;;;;;;17.00;13.00;;;;;;;25.71;54.34;97662.82;433790;1267;110759;-40
2022/08/15 18:06:02;;;;;;;15.70;12.00;;;;;;;25.27;55.28;97668.34;433844;1265;108848;-40
2022/08/15 18:16:19;;;;;;;13.90;12.00;;;;;;;24.78;55.90;97677.30;434072;1265;97888;-40
2022/08/15 18:26:35;;;;;;;16.20;11.60;;;;;;;24.36;56.90;97701.55;434066;1265;97881;-40
2022/08/15 18:37:01;;;;;;;13.60;11.30;;;;;;;23.96;58.00;97718.70;434316;1265;109346;-41
2022/08/15 18:47:09;;;;;;;58.80;37.60;;;;;;;23.61;59.06;97732.01;434334;1264;98566;-39
2022/08/15 18:57:30;;;;;;;29.60;21.20;;;;;;;23.45;59.76;97740.77;434028;1265;111176;-40
2022/08/15 19:07:50;;;;;;;21.60;17.00;;;;;;;23.36;60.28;97749.81;434120;1265;108777;-41
2022/08/15 19:17:58;;;;;;;18.20;15.00;;;;;;;23.49;60.51;97767.39;434089;1265;97471;-41
2022/08/15 19:28:09;;;;;;;18.80;13.90;;;;;;;23.70;60.61;97779.11;434277;1265;97484;-42
2022/08/15 19:38:40;;;;;;;16.70;14.70;;;;;;;23.61;60.56;97789.75;434106;1265;111052;-41
2022/08/15 19:48:54;;;;;;;17.10;13.10;;;;;;;23.54;60.96;97793.05;433692;1265;108490;-42
2022/08/15 19:59:02;;;;;;;16.80;14.40;;;;;;;23.37;61.22;97802.20;434262;1265;96661;-41
2022/08/15 20:09:12;;;;;;;23.00;16.90;;;;;;;23.24;61.62;97800.73;434487;1264;111037;-42
2022/08/15 20:19:29;;;;;;;19.30;14.60;;;;;;;23.10;61.69;97806.47;434542;1265;108823;-41
2022/08/15 20:39:51;;;;;;;17.90;14.00;;;;;;;22.99;61.74;97833.31;434034;1265;97497;-40
2022/08/15 20:50:01;;;;;;;17.80;13.60;;;;;;;22.72;61.90;97841.66;434223;1265;110105;-40
2022/08/15 21:00:18;;;;;;;19.40;14.80;;;;;;;22.55;62.22;97842.15;434162;1265;108475;-40
2022/08/15 21:10:50;;;;;;;17.70;15.20;;;;;;;22.25;62.71;97834.52;433635;1268;98560;-40
2022/08/15 21:21:03;;;;;;;19.90;15.10;;;;;;;21.87;63.39;97831.59;434210;1265;110090;-40
2022/08/15 21:31:34;;;;;;;18.00;14.00;;;;;;;21.59;64.12;97844.60;434252;1265;109089;-41
2022/08/15 21:42:02;;;;;;;21.00;14.70;;;;;;;21.30;64.72;97853.07;433887;1265;97934;-41
2022/08/15 21:52:31;;;;;;;20.30;14.90;;;;;;;21.20;65.61;97856.23;434092;1265;109936;-41
2022/08/15 22:02:49;;;;;;;40.40;16.80;;;;;;;21.14;66.09;97849.31;433116;1264;1417486;-41
2022/08/15 22:13:00;;;;;;;24.30;17.20;;;;;;;20.90;66.30;97846.85;434020;1265;98549;-40
2022/08/15 22:23:10;;;;;;;21.00;15.50;;;;;;;20.69;66.83;97845.48;434103;1265;109532;-41
2022/08/15 22:33:19;;;;;;;22.20;14.50;;;;;;;20.55;67.20;97835.66;434053;1264;108807;-41
2022/08/15 22:43:26;;;;;;;;;;;;;;;20.38;67.80;97828.05;433836;1267;97984;-41
2022/08/15 22:53:37;;;;;;;20.50;15.90;;;;;;;20.41;68.18;97822.67;434154;1264;108973;-41
2022/08/15 23:03:45;;;;;;;23.00;17.70;;;;;;;20.37;68.62;97825.98;434293;1265;97917;-41
2022/08/15 23:13:56;;;;;;;21.30;15.30;;;;;;;20.00;68.72;97826.91;434112;1265;97564;-40
2022/08/15 23:24:11;;;;;;;19.90;15.30;;;;;;;19.76;69.39;97822.21;433334;1264;109005;-41
2022/08/15 23:34:28;;;;;;;20.10;14.50;;;;;;;19.77;69.72;97821.96;434182;1264;97926;-41
2022/08/15 23:44:49;;;;;;;19.30;14.80;;;;;;;19.72;69.97;97823.39;434358;1265;111307;-41
2022/08/15 23:54:57;;;;;;;25.10;15.00;;;;;;;19.70;70.44;97818.62;434419;1265;108769;-40
